createdAt,value
2023-02-11T00:00:04.693Z,6.3
2023-02-11T00:02:09.719Z,6.3
2023-02-11T00:04:11.664Z,6.3
2023-02-11T00:06:13.653Z,6.3
2023-02-11T00:08:15.607Z,6.3
2023-02-11T00:10:17.561Z,6.3
2023-02-11T00:12:19.650Z,6.3
2023-02-11T00:14:21.504Z,6.4
2023-02-11T00:16:26.617Z,6.3
2023-02-11T00:18:28.474Z,6.3
2023-02-11T00:20:30.422Z,6.3
2023-02-11T00:21:32.957Z,6.3
2023-02-11T00:23:34.899Z,6.3
2023-02-11T00:25:36.865Z,6.4
2023-02-11T00:27:38.836Z,6.3
2023-02-11T00:33:47.746Z,6.3
2023-02-11T00:35:50.072Z,6.4
2023-02-11T00:37:51.673Z,6.3
2023-02-11T00:46:02.660Z,6.4
2023-02-11T00:48:04.545Z,6.4
2023-02-11T00:52:08.511Z,6.4
2023-02-11T00:56:12.556Z,6.4
2023-02-11T00:58:17.547Z,6.4
2023-02-11T01:00:19.516Z,6.4
2023-02-11T01:02:21.472Z,6.3
2023-02-11T01:08:27.360Z,6.4
2023-02-11T01:10:29.324Z,6.3
2023-02-11T01:17:40.779Z,6.3
2023-02-11T01:21:44.686Z,6.3
2023-02-11T01:23:46.681Z,6.3
2023-02-11T01:25:52.023Z,6.3
2023-02-11T01:27:53.652Z,6.3
2023-02-11T01:29:55.629Z,6.3
2023-02-11T01:31:57.640Z,6.4
2023-02-11T01:33:59.528Z,6.4
2023-02-11T01:36:01.580Z,6.4
2023-02-11T01:40:08.491Z,6.3
2023-02-11T01:42:10.452Z,6.3
2023-02-11T01:46:14.527Z,6.3
2023-02-11T01:48:16.370Z,6.3
2023-02-11T01:50:18.432Z,6.3
2023-02-11T01:55:25.634Z,6.3
2023-02-11T01:56:27.523Z,6.3
2023-02-11T01:58:29.312Z,6.3
2023-02-11T02:00:31.287Z,6.3
2023-02-11T02:02:33.283Z,6.2
2023-02-11T02:04:35.328Z,6.2
2023-02-11T02:06:37.150Z,6.2
2023-02-11T02:08:42.190Z,6.2
2023-02-11T02:10:44.132Z,6.2
2023-02-11T02:15:02.792Z,6.2
2023-02-11T02:17:04.774Z,6.2
2023-02-11T02:19:06.721Z,6.2
2023-02-11T02:21:11.736Z,6.2
2023-02-11T02:23:13.695Z,6.2
2023-02-11T02:25:15.666Z,6.2
2023-02-11T02:27:17.818Z,6.2
2023-02-11T02:33:23.706Z,6.1
2023-02-11T02:41:34.604Z,6.1
2023-02-11T02:45:38.520Z,6.1
2023-02-11T02:47:40.456Z,6.1
2023-02-11T02:53:49.404Z,6.1
2023-02-11T02:55:51.700Z,6.1
2023-02-11T03:04:02.335Z,6.1
2023-02-11T03:08:06.160Z,6.1
2023-02-11T03:09:11.391Z,6.1
2023-02-11T03:11:10.640Z,6.1
2023-02-11T03:17:19.550Z,6.1
2023-02-11T03:19:21.520Z,6.1
2023-02-11T03:21:23.478Z,6.1
2023-02-11T03:23:25.438Z,6.1
2023-02-11T03:25:27.391Z,6.1
2023-02-11T03:27:29.362Z,6.1
2023-02-11T03:29:31.321Z,6.1
2023-02-11T03:35:40.275Z,6.2
2023-02-11T03:37:42.221Z,6.2
2023-02-11T03:39:44.194Z,6.2
2023-02-11T03:41:46.152Z,6.2
2023-02-11T03:43:48.104Z,6.2
2023-02-11T03:45:53.590Z,6.2
2023-02-11T03:47:55.096Z,6.2
2023-02-11T03:49:57.048Z,6.1
2023-02-11T03:51:59.004Z,6.2
2023-02-11T03:54:00.961Z,6.2
2023-02-11T03:56:02.968Z,6.2
2023-02-11T03:58:04.893Z,6.2
2023-02-11T04:00:09.910Z,6.1
2023-02-11T04:02:11.888Z,6.2
2023-02-11T04:09:20.275Z,6.2
2023-02-11T04:11:22.234Z,6.2
2023-02-11T04:13:27.242Z,6.2
2023-02-11T04:15:29.198Z,6.2
2023-02-11T04:17:31.173Z,6.2
2023-02-11T04:19:33.120Z,6.2
2023-02-11T04:21:35.083Z,6.2
2023-02-11T04:23:37.070Z,6.2
2023-02-11T04:25:39.020Z,6.2
2023-02-11T04:33:49.914Z,6.2
2023-02-11T04:35:52.071Z,6.2
2023-02-11T04:37:53.867Z,6.2
2023-02-11T04:39:55.811Z,6.2
2023-02-11T04:42:00.867Z,6.2
2023-02-11T04:44:02.809Z,6.2
2023-02-11T04:46:04.798Z,6.2
2023-02-11T04:48:53.890Z,6.2
2023-02-11T04:50:08.681Z,6.2
2023-02-11T04:52:10.671Z,6.2
2023-02-11T04:56:17.635Z,6.2
2023-02-11T04:58:19.578Z,6.2
2023-02-11T05:00:21.560Z,6.2
2023-02-11T05:01:24.099Z,6.2
2023-02-11T05:03:26.046Z,6.2
2023-02-11T05:05:27.963Z,6.2
2023-02-11T05:07:29.929Z,6.2
2023-02-11T05:11:36.925Z,6.2
2023-02-11T05:13:38.869Z,6.2
2023-02-11T05:15:40.830Z,6.2
2023-02-11T05:17:42.789Z,6.2
2023-02-11T05:19:44.749Z,6.3
2023-02-11T05:23:51.728Z,6.2
2023-02-11T05:25:53.684Z,6.2
2023-02-11T05:27:55.666Z,6.2
2023-02-11T05:29:57.620Z,6.2
2023-02-11T05:32:01.095Z,6.2
2023-02-11T05:34:03.029Z,6.2
2023-02-11T05:36:04.989Z,6.2
2023-02-11T05:38:09.975Z,6.2
2023-02-11T05:40:11.951Z,6.3
2023-02-11T05:42:13.914Z,6.3
2023-02-11T05:44:15.925Z,6.3
2023-02-11T05:46:17.874Z,6.2
2023-02-11T05:48:19.777Z,6.2
2023-02-11T05:50:21.743Z,6.3
2023-02-11T05:52:26.755Z,6.2
2023-02-11T05:54:28.721Z,6.2
2023-02-11T05:56:30.663Z,6.2
2023-02-11T05:58:49.700Z,6.3
2023-02-11T06:00:56.779Z,6.3
2023-02-11T06:02:58.910Z,6.3
2023-02-11T06:05:03.752Z,6.3
2023-02-11T06:07:05.720Z,6.3
2023-02-11T06:09:07.685Z,6.3
2023-02-11T06:11:09.652Z,6.2
2023-02-11T06:13:11.611Z,6.2
2023-02-11T06:15:13.576Z,6.3
2023-02-11T06:17:22.302Z,6.2
2023-02-11T06:19:20.543Z,6.2
2023-02-11T06:21:23.924Z,6.3
2023-02-11T06:23:24.512Z,6.3
2023-02-11T06:25:26.438Z,6.2
2023-02-11T06:27:35.211Z,6.3
2023-02-11T06:29:30.344Z,6.3
2023-02-11T06:31:32.391Z,6.3
2023-02-11T06:35:39.340Z,6.3
2023-02-11T06:37:41.280Z,6.3
2023-02-11T06:39:43.239Z,6.3
2023-02-11T06:41:45.193Z,6.3
2023-02-11T06:43:47.154Z,6.3
2023-02-11T06:45:49.583Z,6.3
2023-02-11T06:47:54.138Z,6.3
2023-02-11T06:49:56.104Z,6.3
2023-02-11T06:51:58.057Z,6.3
2023-02-11T06:53:00.569Z,6.4
2023-02-11T07:01:11.457Z,6.4
2023-02-11T07:03:13.538Z,6.3
2023-02-11T07:05:15.400Z,6.4
2023-02-11T07:07:17.358Z,6.4
2023-02-11T07:09:19.326Z,6.4
2023-02-11T07:11:21.287Z,6.4
2023-02-11T07:13:23.292Z,6.4
2023-02-11T07:15:28.286Z,6.4
2023-02-11T07:17:30.272Z,6.4
2023-02-11T07:19:32.232Z,6.4
2023-02-11T07:21:34.203Z,6.4
2023-02-11T07:23:36.159Z,6.4
2023-02-11T07:25:38.132Z,6.4
2023-02-11T07:27:40.092Z,6.4
2023-02-11T07:29:45.088Z,6.5
2023-02-11T07:31:47.254Z,6.5
2023-02-11T07:33:49.024Z,6.5
2023-02-11T07:35:51.309Z,6.5
2023-02-11T07:37:52.933Z,6.5
2023-02-11T07:39:54.906Z,6.6
2023-02-11T07:41:56.899Z,6.6
2023-02-11T07:44:01.876Z,6.6
2023-02-11T07:46:03.862Z,6.6
2023-02-11T07:48:05.814Z,6.6
2023-02-11T07:49:08.318Z,6.6
2023-02-11T07:51:10.260Z,6.7
2023-02-11T07:53:12.238Z,6.7
2023-02-11T07:55:14.188Z,6.8
2023-02-11T07:57:19.262Z,6.7
2023-02-11T07:59:21.171Z,6.8
2023-02-11T08:01:23.212Z,6.8
2023-02-11T08:03:25.105Z,6.8
2023-02-11T08:05:27.074Z,6.8
2023-02-11T08:07:29.014Z,6.8
2023-02-11T08:09:33.448Z,6.9
2023-02-11T08:11:36.000Z,6.9
2023-02-11T08:13:37.975Z,6.9
2023-02-11T08:15:39.919Z,6.9
2023-02-11T08:17:41.867Z,6.9
2023-02-11T08:19:43.861Z,6.9
2023-02-11T08:25:53.572Z,7
2023-02-11T08:31:59.569Z,7
2023-02-11T08:34:01.440Z,7
2023-02-11T08:36:03.395Z,7
2023-02-11T08:38:05.363Z,7.1
2023-02-11T08:40:10.405Z,7.1
2023-02-11T08:42:12.367Z,7.1
2023-02-11T08:44:14.322Z,7.2
2023-02-11T08:45:16.849Z,7.1
2023-02-11T08:47:18.811Z,7.2
2023-02-11T08:49:20.799Z,7.3
2023-02-11T08:51:22.751Z,7.4
2023-02-11T08:53:27.770Z,7.4
2023-02-11T08:55:29.762Z,7.5
2023-02-11T08:57:31.751Z,7.5
2023-02-11T08:59:33.719Z,7.5
2023-02-11T09:01:35.792Z,7.5
2023-02-11T09:03:37.809Z,7.6
2023-02-11T09:05:39.645Z,7.6
2023-02-11T09:07:44.660Z,7.6
2023-02-11T09:09:46.635Z,7.6
2023-02-11T09:13:53.325Z,7.6
2023-02-11T09:15:52.562Z,7.7
2023-02-11T09:17:54.531Z,7.8
2023-02-11T09:19:56.519Z,7.8
2023-02-11T09:22:01.521Z,7.9
2023-02-11T09:24:03.505Z,8
2023-02-11T09:26:06.914Z,8
2023-02-11T09:28:07.853Z,8
2023-02-11T09:30:09.790Z,8.1
2023-02-11T09:32:11.984Z,8.1
2023-02-11T09:34:13.748Z,8.1
2023-02-11T09:36:18.770Z,8.2
2023-02-11T09:38:20.757Z,8.2
2023-02-11T09:40:22.777Z,8.2
2023-02-11T09:42:45.554Z,8.3
2023-02-11T09:44:47.521Z,8.3
2023-02-11T09:46:49.492Z,8.3
2023-02-11T09:48:54.530Z,8.3
2023-02-11T09:50:56.510Z,8.3
2023-02-11T09:55:00.514Z,8.4
2023-02-11T09:57:02.502Z,8.5
2023-02-11T09:59:04.461Z,8.6
2023-02-11T10:03:12.140Z,8.5
2023-02-11T10:05:14.097Z,8.6
2023-02-11T10:07:16.076Z,8.6
2023-02-11T10:09:18.062Z,8.6
2023-02-11T10:11:31.014Z,8.7
2023-02-11T10:13:22.401Z,8.7
2023-02-11T10:15:24.384Z,8.7
2023-02-11T10:17:44.241Z,8.8
2023-02-11T10:19:31.371Z,9
2023-02-11T10:21:33.395Z,9
2023-02-11T10:23:35.337Z,9.1
2023-02-11T10:25:37.389Z,9.2
2023-02-11T10:27:39.362Z,9.1
2023-02-11T10:29:41.321Z,9.1
2023-02-11T10:31:46.381Z,9.1
2023-02-11T10:33:48.357Z,9.1
2023-02-11T10:35:50.320Z,9.1
2023-02-11T10:38:54.825Z,9.1
2023-02-11T10:40:56.817Z,9.1
2023-02-11T10:42:58.835Z,9.1
2023-02-11T10:45:08.816Z,9.1
2023-02-11T10:47:05.828Z,9.2
2023-02-11T10:49:07.812Z,9.3
2023-02-11T10:51:09.815Z,9.3
2023-02-11T10:53:11.765Z,9.4
2023-02-11T10:55:13.756Z,9.3
2023-02-11T10:57:15.730Z,9.3
2023-02-11T11:05:26.744Z,9.4
2023-02-11T11:11:32.686Z,9.6
2023-02-11T11:13:37.738Z,9.5
2023-02-11T11:15:39.720Z,9.5
2023-02-11T11:21:45.694Z,9.5
2023-02-11T11:23:49.187Z,9.5
2023-02-11T11:25:51.124Z,9.5
2023-02-11T11:27:56.193Z,9.5
2023-02-11T11:29:58.159Z,9.5
2023-02-11T11:32:00.204Z,9.5
2023-02-11T11:33:02.667Z,9.5
2023-02-11T11:35:04.655Z,9.5
2023-02-11T11:37:06.658Z,9.7
2023-02-11T11:39:08.627Z,9.9
2023-02-11T11:41:13.676Z,9.8
2023-02-11T11:43:15.663Z,9.9
2023-02-11T11:45:17.656Z,9.9
2023-02-11T11:47:19.653Z,9.9
2023-02-11T11:51:23.620Z,10.1
2023-02-11T11:53:25.607Z,10.2
2023-02-11T12:01:36.679Z,9.9
2023-02-11T12:03:38.600Z,9.9
2023-02-11T12:05:40.637Z,10.1
2023-02-11T12:09:47.702Z,10.7
2023-02-11T12:11:49.702Z,10.6
2023-02-11T12:13:51.665Z,10.6
2023-02-11T12:15:53.645Z,11.9
2023-02-11T12:17:55.648Z,12.5
2023-02-11T12:19:57.653Z,12.1
2023-02-11T12:21:59.627Z,11.5
2023-02-11T12:24:04.682Z,13.3
2023-02-11T12:26:06.661Z,13.1
2023-02-11T12:28:08.698Z,12.2
2023-02-11T12:29:11.190Z,11.3
2023-02-11T12:31:13.336Z,11
2023-02-11T12:33:15.160Z,11.4
2023-02-11T12:35:17.180Z,11.6
2023-02-11T12:37:22.235Z,10.8
2023-02-11T12:41:26.252Z,10.9
2023-02-11T12:43:28.199Z,10.7
2023-02-11T12:45:30.269Z,10.9
2023-02-11T12:47:32.184Z,11.1
2023-02-11T12:51:39.244Z,11.2
2023-02-11T12:53:41.211Z,11.2
2023-02-11T12:56:47.085Z,11.3
2023-02-11T12:57:45.211Z,11.1
2023-02-11T12:59:47.189Z,11.1
2023-02-11T13:01:49.196Z,11.1
2023-02-11T13:07:58.254Z,11
2023-02-11T13:10:00.217Z,11.2
2023-02-11T13:12:02.203Z,11.3
2023-02-11T13:14:04.201Z,11.3
2023-02-11T13:16:06.232Z,11.2
2023-02-11T13:18:08.174Z,11.4
2023-02-11T13:20:13.258Z,11.7
2023-02-11T13:22:15.216Z,11.5
2023-02-11T13:24:17.198Z,11.5
2023-02-11T13:26:33.947Z,11.4
2023-02-11T13:28:36.200Z,11.2
2023-02-11T13:30:37.974Z,11.2
2023-02-11T13:32:42.976Z,11.4
2023-02-11T13:34:44.972Z,11.6
2023-02-11T13:36:46.971Z,12
2023-02-11T13:38:48.977Z,12
2023-02-11T13:40:51.180Z,12.1
2023-02-11T13:42:52.946Z,12
2023-02-11T13:44:54.943Z,12.8
2023-02-11T13:47:00.011Z,14.1
2023-02-11T13:49:02.043Z,13.7
2023-02-11T13:51:04.005Z,13.1
2023-02-11T13:53:05.988Z,13.7
2023-02-11T13:55:07.973Z,13.4
2023-02-11T13:57:09.973Z,13.3
2023-02-11T13:59:11.942Z,12.9
2023-02-11T14:01:17.790Z,12.7
2023-02-11T14:03:19.737Z,12.3
2023-02-11T14:05:21.703Z,12.6
2023-02-11T14:07:23.693Z,13
2023-02-11T14:09:26.164Z,13.7
2023-02-11T14:11:28.161Z,13.8
2023-02-11T14:13:30.143Z,13.2
2023-02-11T14:15:35.209Z,12.3
2023-02-11T14:17:37.205Z,11.9
2023-02-11T14:19:39.196Z,11.7
2023-02-11T14:20:41.706Z,11.4
2023-02-11T14:26:47.675Z,10.8
2023-02-11T14:28:52.766Z,10.7
2023-02-11T14:32:56.770Z,12.8
2023-02-11T14:34:58.717Z,13.8
2023-02-11T14:37:00.726Z,13.7
2023-02-11T14:39:02.800Z,12
2023-02-11T14:41:04.718Z,11.4
2023-02-11T14:43:09.771Z,13.8
2023-02-11T14:45:11.738Z,14.3
2023-02-11T14:47:13.742Z,14.6
2023-02-11T14:49:15.749Z,14.7
2023-02-11T14:51:17.725Z,15.1
2023-02-11T14:53:19.735Z,15.6
2023-02-11T14:57:26.749Z,15.4
2023-02-11T14:59:28.748Z,15.6
2023-02-11T15:01:30.780Z,15.3
2023-02-11T15:03:32.738Z,14.1
2023-02-11T15:05:34.721Z,13.4
2023-02-11T15:07:36.691Z,12.1
2023-02-11T15:09:38.695Z,12
2023-02-11T15:11:43.800Z,12.2
2023-02-11T15:13:45.732Z,11.6
2023-02-11T15:15:47.759Z,11.1
2023-02-11T15:18:52.268Z,10.9
2023-02-11T15:20:54.531Z,11.7
2023-02-11T15:22:56.236Z,11.7
2023-02-11T15:25:01.293Z,11
2023-02-11T15:27:03.290Z,10.9
2023-02-11T15:29:05.273Z,10.8
2023-02-11T15:31:07.330Z,10.6
2023-02-11T15:33:09.243Z,10.5
2023-02-11T15:35:11.253Z,10.4
2023-02-11T15:37:13.255Z,10.4
2023-02-11T15:39:18.299Z,10.3
2023-02-11T15:41:20.277Z,10.3
2023-02-11T15:43:22.276Z,10.3
2023-02-11T15:47:26.287Z,10.3
2023-02-11T15:49:28.270Z,10.3
2023-02-11T15:51:30.247Z,10.3
2023-02-11T15:53:35.298Z,10.2
2023-02-11T15:55:37.313Z,10.2
2023-02-11T15:57:39.298Z,10.4
2023-02-11T15:59:41.300Z,10.9
2023-02-11T16:03:45.276Z,10.5
2023-02-11T16:05:47.266Z,10.3
2023-02-11T16:07:52.317Z,10.1
2023-02-11T16:11:56.293Z,10.1
2023-02-11T16:12:58.837Z,10.1
2023-02-11T16:15:00.878Z,10
2023-02-11T16:17:02.812Z,10
2023-02-11T16:19:06.159Z,10
2023-02-11T16:21:09.862Z,9.9
2023-02-11T16:23:11.868Z,9.9
2023-02-11T16:25:13.830Z,9.9
2023-02-11T16:27:15.855Z,9.9
2023-02-11T16:29:17.816Z,9.8
2023-02-11T16:31:19.909Z,9.8
2023-02-11T16:33:21.785Z,9.8
2023-02-11T16:35:26.813Z,9.7
2023-02-11T16:37:28.847Z,9.7
2023-02-11T16:39:30.800Z,9.7
2023-02-11T16:41:32.789Z,9.7
2023-02-11T16:43:34.795Z,9.6
2023-02-11T16:45:36.784Z,9.6
2023-02-11T16:47:38.772Z,9.6
2023-02-11T16:49:43.836Z,9.5
2023-02-11T16:51:45.813Z,9.5
2023-02-11T16:53:47.804Z,9.4
2023-02-11T17:04:01.086Z,9.4
2023-02-11T17:08:05.098Z,9.3
2023-02-11T17:12:29.853Z,9.3
2023-02-11T17:14:33.378Z,9.3
2023-02-11T17:16:38.379Z,9.3
2023-02-11T17:24:46.340Z,9.2
2023-02-11T17:30:55.455Z,9.1
2023-02-11T17:32:57.366Z,9.1
2023-02-11T17:41:05.337Z,9
2023-02-11T17:49:16.361Z,9
2023-02-11T17:59:29.370Z,9
2023-02-11T18:01:31.438Z,9
2023-02-11T18:03:33.353Z,8.9
2023-02-11T18:04:35.948Z,8.9
2023-02-11T18:06:37.882Z,8.9
2023-02-11T18:08:39.848Z,8.9
2023-02-11T18:10:41.921Z,8.9
2023-02-11T18:12:46.865Z,8.9
2023-02-11T18:14:48.860Z,8.9
2023-02-11T18:16:50.924Z,8.9
2023-02-11T18:22:56.805Z,8.8
2023-02-11T18:24:58.797Z,8.8
2023-02-11T18:29:05.820Z,8.8
2023-02-11T18:31:07.844Z,8.8
2023-02-11T18:33:09.807Z,8.7
2023-02-11T18:47:26.776Z,8.6
2023-02-11T18:51:30.763Z,8.6
2023-02-11T18:53:32.733Z,8.6
2023-02-11T18:55:37.805Z,8.5
2023-02-11T18:57:39.770Z,8.5
2023-02-11T18:59:41.750Z,8.5
2023-02-11T19:02:46.269Z,8.5
2023-02-11T19:04:48.368Z,8.4
2023-02-11T19:06:50.233Z,8.4
2023-02-11T19:10:58.182Z,8.4
2023-02-11T19:13:00.169Z,8.4
2023-02-11T19:19:06.113Z,8.4
2023-02-11T19:21:08.097Z,8.4
2023-02-11T19:25:15.117Z,8.4
2023-02-11T19:27:17.119Z,8.4
2023-02-11T19:29:19.115Z,8.4
2023-02-11T19:31:21.186Z,8.3
2023-02-11T19:35:25.061Z,8.3
2023-02-11T19:37:30.091Z,8.3
2023-02-11T19:43:36.030Z,8.2
2023-02-11T19:45:38.021Z,8.2
2023-02-11T19:47:40.022Z,8.2
2023-02-11T19:51:47.005Z,8.2
2023-02-11T19:53:49.006Z,8.2
2023-02-11T19:55:51.364Z,8.2
2023-02-11T19:56:53.505Z,8.2
2023-02-11T19:58:55.485Z,8.2
2023-02-11T20:00:57.453Z,8.1
2023-02-11T20:02:59.527Z,8.1
2023-02-11T20:05:04.492Z,8.1
2023-02-11T20:07:06.605Z,8.1
2023-02-11T20:09:08.435Z,8.1
2023-02-11T20:11:10.421Z,8
2023-02-11T20:13:12.414Z,8
2023-02-11T20:15:14.394Z,8
2023-02-11T20:17:16.511Z,8
2023-02-11T20:19:21.755Z,8
2023-02-11T20:21:23.383Z,8
2023-02-11T20:23:25.364Z,8
2023-02-11T20:25:27.373Z,8
2023-02-11T20:27:29.360Z,8
2023-02-11T20:33:38.329Z,8
2023-02-11T20:35:40.317Z,8
2023-02-11T20:37:44.085Z,7.9
2023-02-11T20:41:46.431Z,7.9
2023-02-11T20:43:48.206Z,7.9
2023-02-11T20:45:50.616Z,7.9
2023-02-11T20:47:55.223Z,7.9
2023-02-11T20:54:22.037Z,7.9
2023-02-11T20:56:24.024Z,7.9
2023-02-11T20:58:25.996Z,7.9
2023-02-11T21:00:31.067Z,7.9
2023-02-11T21:02:33.003Z,7.9
2023-02-11T21:04:34.970Z,7.9
2023-02-11T21:06:36.963Z,7.9
2023-02-11T21:08:38.939Z,7.9
2023-02-11T21:14:47.942Z,7.8
2023-02-11T21:16:49.899Z,7.8
2023-02-11T21:18:51.869Z,7.8
2023-02-11T21:20:53.829Z,7.8
2023-02-11T21:22:55.829Z,7.8
2023-02-11T21:24:57.777Z,7.8
2023-02-11T21:26:59.771Z,7.8
2023-02-11T21:29:04.800Z,7.8
2023-02-11T21:31:07.161Z,7.8
2023-02-11T21:33:08.750Z,7.8
2023-02-11T21:35:10.728Z,7.8
2023-02-11T21:37:12.720Z,7.8
2023-02-11T21:39:14.692Z,7.8
2023-02-11T21:41:16.679Z,7.8
2023-02-11T21:45:23.691Z,7.7
2023-02-11T21:47:25.667Z,7.7
2023-02-11T21:48:28.150Z,7.7
2023-02-11T21:50:30.149Z,7.7
2023-02-11T21:52:32.111Z,7.7
2023-02-11T21:56:39.118Z,7.6
2023-02-11T21:58:41.101Z,7.7
2023-02-11T22:00:43.112Z,7.7
2023-02-11T22:02:45.068Z,7.7
2023-02-11T22:04:47.076Z,7.7
2023-02-11T22:06:49.015Z,7.7
2023-02-11T22:08:51.021Z,7.7
2023-02-11T22:10:56.016Z,7.7
2023-02-11T22:12:57.998Z,7.6
2023-02-11T22:14:59.983Z,7.6
2023-02-11T22:17:01.989Z,7.6
2023-02-11T22:19:03.920Z,7.6
2023-02-11T22:21:05.904Z,7.6
2023-02-11T22:23:07.915Z,7.6
2023-02-11T22:25:31.467Z,7.6
2023-02-11T22:27:14.902Z,7.6
2023-02-11T22:29:16.857Z,7.6
2023-02-11T22:31:19.098Z,7.6
2023-02-11T22:33:20.972Z,7.6
2023-02-11T22:35:22.810Z,7.6
2023-02-11T22:37:24.787Z,7.6
2023-02-11T22:39:29.809Z,7.6
2023-02-11T22:41:31.778Z,7.6
2023-02-11T22:44:36.292Z,7.6
2023-02-11T22:46:38.288Z,7.6
2023-02-11T22:48:40.226Z,7.6
2023-02-11T22:50:42.177Z,7.6
2023-02-11T22:52:47.205Z,7.6
2023-02-11T22:54:49.182Z,7.5
2023-02-11T23:02:57.140Z,7.5
2023-02-11T23:04:59.064Z,7.5
2023-02-11T23:07:05.586Z,7.5
2023-02-11T23:09:07.593Z,7.5
2023-02-11T23:11:09.540Z,7.4
2023-02-11T23:13:11.503Z,7.4
2023-02-11T23:15:13.498Z,7.4
2023-02-11T23:17:15.447Z,7.3
2023-02-11T23:19:17.469Z,7.3
2023-02-11T23:21:22.520Z,7.3
2023-02-11T23:23:24.490Z,7.3
2023-02-11T23:25:26.452Z,7.3
2023-02-11T23:27:28.426Z,7.2
2023-02-11T23:29:30.405Z,7.2
2023-02-11T23:31:32.493Z,7.1
2023-02-11T23:33:34.350Z,7.1
2023-02-11T23:35:39.374Z,7.1
2023-02-11T23:37:41.334Z,7.1
2023-02-11T23:39:43.352Z,7.1
2023-02-11T23:40:45.813Z,7.1
2023-02-11T23:42:47.792Z,7.1
2023-02-11T23:46:51.721Z,7
2023-02-11T23:48:56.749Z,6.9
2023-02-11T23:50:58.726Z,6.9
2023-02-11T23:53:00.682Z,6.9
2023-02-11T23:55:02.652Z,6.8
2023-02-11T23:59:06.593Z,6.7
